Time;durP1;ratioP1;P1;durP2;ratioP2;P2;SDS_P1;SDS_P2;PMS_P1;PMS_P2;Temp;Humidity;BMP_temperature;BMP_pressure;BME280_temperature;BME280_humidity;BME280_pressure;Samples;Min_cycle;Max_cycle;Signal;HPM_P1;HPM_P2
2022/09/28 00:02:03;;;;;;;0.10;0.10;;;;;;;12.44;58.20;96298.06;8385448;28;20231;-74
2022/09/28 00:06:08;;;;;;;0.00;0.00;;;;;;;12.44;58.16;96297.25;8385309;28;20338;-74
2022/09/28 00:10:11;;;;;;;0.10;0.10;;;;;;;12.53;58.09;96296.53;8385205;28;20234;-74
2022/09/28 00:14:15;;;;;;;0.10;0.10;;;;;;;12.44;57.99;96287.69;8384991;28;20247;-75
2022/09/28 00:18:18;;;;;;;0.10;0.10;;;;;;;12.47;58.62;96291.81;8384118;28;20273;-75
2022/09/28 00:22:21;;;;;;;0.10;0.10;;;;;;;12.35;58.58;96290.19;8384653;28;20223;-75
2022/09/28 00:26:24;;;;;;;0.10;0.10;;;;;;;12.50;58.15;96273.41;8384508;28;20289;-78
2022/09/28 00:30:28;;;;;;;0.10;0.10;;;;;;;12.22;58.40;96260.00;8383804;28;20231;-76
2022/09/28 00:34:33;;;;;;;0.00;0.00;;;;;;;12.33;58.25;96243.56;8384466;28;20236;-77
2022/09/28 00:38:38;;;;;;;0.10;0.10;;;;;;;12.29;58.92;96237.78;8384017;28;20277;-77
2022/09/28 00:42:41;;;;;;;0.10;0.10;;;;;;;12.20;58.43;96238.50;8384059;28;20235;-77
2022/09/28 00:46:46;;;;;;;0.10;0.10;;;;;;;12.03;60.19;96236.41;8383878;28;20243;-77
2022/09/28 00:50:49;;;;;;;0.10;0.10;;;;;;;11.77;60.48;96225.44;8383883;28;20228;-77
2022/09/28 00:54:52;;;;;;;0.10;0.10;;;;;;;12.02;60.15;96235.59;8383602;28;20246;-77
2022/09/28 00:58:55;;;;;;;0.10;0.10;;;;;;;12.22;59.01;96228.03;8383676;28;20231;-77
2022/09/28 01:02:59;;;;;;;0.10;0.10;;;;;;;11.89;60.28;96211.53;8383337;28;20270;-78
2022/09/28 01:07:02;;;;;;;0.10;0.10;;;;;;;11.85;60.54;96207.53;8383136;28;20231;-77
2022/09/28 01:11:05;;;;;;;0.10;0.10;;;;;;;12.07;59.80;96194.56;8383297;28;20246;-77
2022/09/28 01:15:09;;;;;;;0.10;0.10;;;;;;;12.18;59.20;96193.69;8383098;28;20236;-77
2022/09/28 01:19:25;;;;;;;0.10;0.10;;;;;;;11.84;60.08;96161.75;8383440;28;20239;-77
2022/09/28 01:24:08;;;;;;;0.10;0.10;;;;;;;11.80;60.37;96156.00;8382694;28;20246;-77
2022/09/28 01:28:14;;;;;;;0.10;0.10;;;;;;;12.09;59.19;96147.75;8381639;28;20530;-77
2022/09/28 01:32:24;;;;;;;0.10;0.10;;;;;;;12.24;59.84;96151.72;8383006;28;20231;-77
2022/09/28 01:36:28;;;;;;;0.10;0.10;;;;;;;12.33;59.42;96140.56;8382558;28;20232;-77
2022/09/28 01:40:32;;;;;;;0.10;0.10;;;;;;;12.05;60.56;96117.78;8382610;28;20231;-77
2022/09/28 01:44:39;;;;;;;0.10;0.10;;;;;;;12.02;60.65;96128.41;8382526;28;20289;-77
2022/09/28 01:48:45;;;;;;;0.10;0.10;;;;;;;11.97;61.43;96120.97;8382276;28;20542;-77
2022/09/28 01:52:51;;;;;;;0.10;0.10;;;;;;;12.12;60.28;96100.78;8382544;28;20529;-77
2022/09/28 01:56:58;;;;;;;0.10;0.10;;;;;;;12.06;60.70;96091.72;8382423;28;20234;-77
2022/09/28 02:01:05;;;;;;;0.10;0.10;;;;;;;12.16;60.74;96093.56;8382193;28;20499;-77
2022/09/28 02:05:11;;;;;;;0.10;0.10;;;;;;;12.21;60.50;96076.69;8381833;28;20518;-77
2022/09/28 02:09:18;;;;;;;0.10;0.10;;;;;;;12.11;61.15;96073.19;8381517;28;20545;-77
2022/09/28 02:13:25;;;;;;;0.10;0.10;;;;;;;12.28;61.13;96072.66;8381600;28;20285;-77
2022/09/28 02:17:29;;;;;;;0.10;0.10;;;;;;;12.14;61.24;96057.38;8381122;28;20475;-77
2022/09/28 02:21:37;;;;;;;0.10;0.10;;;;;;;12.20;61.07;96059.44;8381466;28;20238;-77
2022/09/28 02:25:41;;;;;;;0.10;0.10;;;;;;;12.19;61.14;96057.81;8381514;28;20297;-77
2022/09/28 02:29:44;;;;;;;0.10;0.10;;;;;;;11.79;62.47;96052.41;8381126;28;20231;-77
2022/09/28 02:33:50;;;;;;;0.10;0.10;;;;;;;11.79;62.75;96055.00;8381297;28;20506;-77
2022/09/28 02:37:53;;;;;;;0.10;0.10;;;;;;;12.14;62.33;96049.59;8381033;28;20246;-77
2022/09/28 02:42:03;;;;;;;0.10;0.10;;;;;;;12.01;62.40;96041.97;8380789;28;20298;-77
2022/09/28 02:46:15;;;;;;;0.10;0.10;;;;;;;11.71;63.36;96038.25;8380749;28;20257;-78
2022/09/28 02:50:24;;;;;;;0.10;0.10;;;;;;;11.84;63.15;96032.09;8380481;28;20315;-77
2022/09/28 02:54:39;;;;;;;0.10;0.10;;;;;;;11.87;63.01;96035.25;8380063;28;20235;-77
2022/09/28 02:58:49;;;;;;;0.10;0.10;;;;;;;11.96;63.04;96022.56;8380929;28;20243;-77
2022/09/28 03:03:01;;;;;;;0.10;0.10;;;;;;;12.06;62.60;96021.66;8380554;28;20420;-77
2022/09/28 03:07:06;;;;;;;0.10;0.10;;;;;;;12.25;62.46;96020.16;8380216;28;20236;-77
2022/09/28 03:11:13;;;;;;;0.07;0.07;;;;;;;12.11;62.26;96003.97;8380250;28;20227;-77
2022/09/28 03:15:22;;;;;;;0.10;0.10;;;;;;;11.51;64.55;96000.94;8380139;28;20515;-77
2022/09/28 03:19:28;;;;;;;0.03;0.03;;;;;;;11.05;66.42;95973.47;8380250;28;20284;-77
2022/09/28 03:23:32;;;;;;;0.10;0.10;;;;;;;11.09;67.02;95969.69;8379674;28;20238;-76
2022/09/28 03:27:35;;;;;;;0.10;0.10;;;;;;;11.00;67.57;95961.81;8380034;28;20243;-77
2022/09/28 03:31:37;;;;;;;0.10;0.10;;;;;;;11.08;66.87;95959.44;8379898;28;20263;-77
2022/09/28 03:35:40;;;;;;;0.10;0.10;;;;;;;10.85;67.76;95953.47;8379849;28;20239;-77
2022/09/28 03:39:45;;;;;;;0.10;0.10;;;;;;;11.65;65.50;95945.44;8380091;28;20243;-77
2022/09/28 03:43:47;;;;;;;0.10;0.10;;;;;;;11.52;65.53;95949.94;8379756;28;20289;-77
2022/09/28 03:47:51;;;;;;;0.00;0.00;;;;;;;10.61;68.32;95940.69;8379700;28;20494;-77
2022/09/28 03:51:53;;;;;;;0.10;0.10;;;;;;;11.35;66.74;95940.94;8380979;28;20250;-77
2022/09/28 03:56:02;;;;;;;0.10;0.10;;;;;;;11.69;65.27;95933.00;8385855;28;20227;-77
2022/09/28 04:00:06;;;;;;;0.10;0.10;;;;;;;11.42;66.01;95923.09;8385567;28;20227;-77
2022/09/28 04:04:11;;;;;;;0.10;0.10;;;;;;;11.74;65.03;95918.72;8385166;28;20227;-77
2022/09/28 04:08:14;;;;;;;0.10;0.10;;;;;;;11.64;65.78;95911.84;8384766;28;20234;-77
2022/09/28 04:12:18;;;;;;;0.10;0.10;;;;;;;11.80;65.42;95899.25;8385050;28;20534;-77
2022/09/28 04:16:21;;;;;;;0.00;0.00;;;;;;;11.92;64.90;95900.88;8385113;28;20461;-76
2022/09/28 04:20:24;;;;;;;0.10;0.10;;;;;;;11.91;65.08;95901.00;8384916;28;20235;-77
2022/09/28 04:24:27;;;;;;;0.10;0.10;;;;;;;11.96;64.94;95891.06;8384200;28;20534;-77
2022/09/28 04:32:51;;;;;;;0.10;0.10;;;;;;;12.10;64.56;95869.97;8384719;28;20231;-77
2022/09/28 04:36:53;;;;;;;0.10;0.10;;;;;;;11.96;64.94;95866.91;8384437;28;20231;-77
2022/09/28 04:40:56;;;;;;;0.10;0.10;;;;;;;12.09;64.65;95863.16;8384312;28;20309;-77
2022/09/28 04:45:01;;;;;;;0.10;0.10;;;;;;;12.27;63.93;95865.16;8384123;28;20294;-77
2022/09/28 04:49:03;;;;;;;0.07;0.07;;;;;;;11.70;66.33;95855.09;8383950;28;20529;-77
2022/09/28 04:53:06;;;;;;;0.10;0.10;;;;;;;11.84;66.29;95859.16;8383737;28;20230;-77
2022/09/28 04:57:09;;;;;;;0.10;0.10;;;;;;;11.85;66.10;95850.44;8383394;28;20235;-77
2022/09/28 05:01:15;;;;;;;0.10;0.10;;;;;;;12.12;64.79;95844.72;8383653;28;20269;-76
2022/09/28 05:05:18;;;;;;;0.10;0.10;;;;;;;12.24;64.69;95847.22;8383345;28;20285;-76
2022/09/28 05:09:21;;;;;;;0.07;0.07;;;;;;;12.22;64.96;95855.19;8383458;28;20227;-77
2022/09/28 05:13:24;;;;;;;0.07;0.07;;;;;;;12.19;64.91;95852.81;8383116;28;20415;-77
2022/09/28 05:17:28;;;;;;;0.00;0.00;;;;;;;12.16;65.00;95844.47;8382426;28;20239;-77
2022/09/28 05:21:31;;;;;;;0.10;0.10;;;;;;;12.13;65.18;95836.00;8382899;28;20227;-77
2022/09/28 05:25:34;;;;;;;0.00;0.00;;;;;;;12.12;65.75;95838.72;8382925;28;20278;-76
2022/09/28 05:29:37;;;;;;;0.07;0.07;;;;;;;12.15;65.48;95840.22;8382270;28;20231;-77
2022/09/28 05:33:41;;;;;;;0.10;0.10;;;;;;;12.33;64.82;95854.25;8382433;28;20289;-79
2022/09/28 05:37:44;;;;;;;0.10;0.10;;;;;;;12.42;64.58;95853.47;8382312;28;20235;-79
2022/09/28 05:41:47;;;;;;;0.10;0.10;;;;;;;12.46;64.55;95851.44;8382284;28;20251;-75
2022/09/28 05:45:49;;;;;;;0.10;0.10;;;;;;;12.40;65.00;95854.56;8382220;28;20235;-78
2022/09/28 05:49:58;;;;;;;0.00;0.00;;;;;;;12.45;65.11;95860.16;8381913;28;20246;-79
2022/09/28 05:54:01;;;;;;;0.10;0.10;;;;;;;12.51;64.79;95857.06;8381839;28;20508;-78
2022/09/28 05:58:08;;;;;;;0.00;0.00;;;;;;;12.49;65.21;95852.00;8381746;28;20228;-78
2022/09/28 06:02:10;;;;;;;0.10;0.10;;;;;;;12.61;64.86;95849.31;8381742;28;20224;-77
2022/09/28 06:06:15;;;;;;;0.00;0.00;;;;;;;12.71;64.36;95844.94;8381643;28;20300;-78
2022/09/28 06:10:17;;;;;;;0.00;0.00;;;;;;;12.68;65.06;95846.03;8380977;28;20309;-80
2022/09/28 06:14:20;;;;;;;0.07;0.07;;;;;;;12.65;65.47;95850.69;8380757;28;20227;-77
2022/09/28 06:18:23;;;;;;;0.10;0.10;;;;;;;12.77;64.74;95847.00;8381218;28;20260;-79
2022/09/28 06:22:27;;;;;;;0.10;0.10;;;;;;;12.77;64.98;95856.56;8380509;28;20223;-78
2022/09/28 06:26:30;;;;;;;0.10;0.10;;;;;;;12.62;65.66;95867.34;8380913;28;20243;-75
2022/09/28 06:30:37;;;;;;;0.00;0.00;;;;;;;12.71;65.61;95870.91;8380505;28;20581;-76
2022/09/28 06:34:40;;;;;;;0.10;0.10;;;;;;;12.56;66.03;95885.22;8380759;28;20239;-76
2022/09/28 06:38:45;;;;;;;0.00;0.00;;;;;;;12.61;65.77;95883.06;8380624;28;20266;-76
2022/09/28 06:42:55;;;;;;;0.07;0.07;;;;;;;12.70;65.61;95884.88;8380761;28;20218;-76
2022/09/28 06:46:57;;;;;;;0.10;0.10;;;;;;;12.61;66.18;95889.06;8380604;28;20230;-77
2022/09/28 06:51:01;;;;;;;0.10;0.10;;;;;;;12.54;66.96;95885.34;8379918;28;20238;-76
2022/09/28 06:55:06;;;;;;;0.10;0.10;;;;;;;12.82;65.57;95891.59;8379938;28;20243;-76
2022/09/28 06:59:10;;;;;;;0.00;0.00;;;;;;;12.75;66.19;95889.66;8380158;28;20523;-77
2022/09/28 07:03:13;;;;;;;0.10;0.10;;;;;;;12.87;65.86;95897.22;8380244;28;20227;-76
2022/09/28 07:07:17;;;;;;;0.10;0.10;;;;;;;12.74;66.55;95903.56;8379878;28;20231;-76
2022/09/28 07:11:25;;;;;;;0.00;0.00;;;;;;;12.84;66.10;95910.47;8379946;28;20231;-76
2022/09/28 07:15:29;;;;;;;0.10;0.10;;;;;;;13.01;65.62;95909.00;8379641;28;20269;-77
2022/09/28 07:19:32;;;;;;;0.00;0.00;;;;;;;13.23;65.09;95915.75;8379989;28;20254;-77
2022/09/28 07:23:35;;;;;;;0.10;0.10;;;;;;;13.29;65.20;95927.41;8379818;28;20417;-77
2022/09/28 07:27:56;;;;;;;0.00;0.00;;;;;;;13.34;64.71;95932.22;8384344;28;20420;-77
2022/09/28 07:31:58;;;;;;;0.10;0.10;;;;;;;13.23;64.94;95927.91;8386260;28;20453;-77
2022/09/28 07:36:05;;;;;;;0.03;0.03;;;;;;;13.26;64.37;95931.06;8386091;28;20546;-77
2022/09/28 07:44:30;;;;;;;0.00;0.00;;;;;;;12.93;63.86;95950.41;8385431;28;20514;-77
2022/09/28 07:48:35;;;;;;;0.10;0.10;;;;;;;12.85;62.54;95952.84;8385647;28;20519;-77
2022/09/28 07:52:38;;;;;;;0.00;0.00;;;;;;;12.78;62.76;95957.75;8385616;28;20231;-77
2022/09/28 07:56:41;;;;;;;0.00;0.00;;;;;;;13.09;62.68;95960.31;8385456;28;20244;-76
2022/09/28 08:00:46;;;;;;;0.10;0.10;;;;;;;13.07;62.12;95973.44;8385385;28;20246;-76
2022/09/28 08:04:49;;;;;;;0.10;0.10;;;;;;;13.71;60.86;95970.56;8385451;28;20561;-77
2022/09/28 08:08:55;;;;;;;0.10;0.10;;;;;;;14.06;59.33;95973.44;8385254;28;20301;-77
2022/09/28 08:13:01;;;;;;;0.00;0.00;;;;;;;14.41;59.31;95979.00;8385035;28;20227;-76
2022/09/28 08:17:07;;;;;;;0.00;0.00;;;;;;;13.97;58.71;95989.88;8384954;28;20238;-77
2022/09/28 08:25:29;;;;;;;0.00;0.00;;;;;;;13.75;58.97;96008.38;8384280;28;20235;-77
2022/09/28 08:29:32;;;;;;;0.00;0.00;;;;;;;13.88;57.99;96001.94;8384226;28;20542;-77
2022/09/28 08:33:37;;;;;;;0.00;0.00;;;;;;;13.92;57.64;96015.50;8384496;28;20239;-77
2022/09/28 08:37:39;;;;;;;0.10;0.10;;;;;;;13.82;57.65;96023.31;8383449;28;20268;-77
2022/09/28 08:41:47;;;;;;;0.10;0.10;;;;;;;15.44;52.46;96021.63;8384208;28;20235;-77
2022/09/28 08:45:50;;;;;;;0.00;0.00;;;;;;;16.19;52.30;96018.78;8384236;28;20227;-77
2022/09/28 08:49:56;;;;;;;0.10;0.10;;;;;;;16.46;52.19;96028.31;8383756;28;20230;-77
2022/09/28 08:54:04;;;;;;;0.00;0.00;;;;;;;16.34;51.88;96032.13;8383800;28;20234;-77
2022/09/28 08:58:14;;;;;;;0.00;0.00;;;;;;;16.55;51.20;96037.03;8383752;28;20442;-77
2022/09/28 09:02:22;;;;;;;0.00;0.00;;;;;;;16.00;53.13;96048.47;8383671;28;20451;-77
2022/09/28 09:06:33;;;;;;;0.00;0.00;;;;;;;15.57;53.05;96047.34;8383907;28;20238;-78
2022/09/28 09:10:51;;;;;;;0.00;0.00;;;;;;;15.83;52.40;96053.53;8383139;28;20231;-77
2022/09/28 09:15:22;;;;;;;0.00;0.00;;;;;;;16.32;50.43;96053.19;8383408;28;20227;-76
2022/09/28 09:19:35;;;;;;;0.00;0.00;;;;;;;15.59;52.83;96066.28;8382867;28;20270;-75
2022/09/28 09:23:49;;;;;;;0.00;0.00;;;;;;;14.59;52.69;96078.13;8383008;28;20285;-76
2022/09/28 09:28:28;;;;;;;0.00;0.00;;;;;;;14.95;52.62;96083.56;8383001;28;20232;-76
2022/09/28 09:32:43;;;;;;;0.10;0.10;;;;;;;15.73;50.63;96083.25;8382282;28;20452;-78
2022/09/28 09:36:56;;;;;;;0.00;0.00;;;;;;;15.85;51.23;96092.53;8383067;28;20223;-76
2022/09/28 09:41:08;;;;;;;0.10;0.10;;;;;;;15.31;52.32;96102.78;8382792;28;20227;-77
2022/09/28 09:45:31;;;;;;;0.00;0.00;;;;;;;14.71;52.68;96103.06;8382939;28;20223;-77
2022/09/28 09:49:36;;;;;;;0.00;0.00;;;;;;;14.61;53.71;96099.66;8381073;28;20250;-78
2022/09/28 09:53:42;;;;;;;0.07;0.07;;;;;;;14.59;53.38;96105.00;8382278;28;20280;-76
2022/09/28 09:57:50;;;;;;;0.10;0.10;;;;;;;14.62;53.66;96109.94;8382127;28;20231;-77
2022/09/28 10:01:53;;;;;;;0.00;0.00;;;;;;;14.40;53.54;96115.41;8381790;28;20227;-78
2022/09/28 10:05:59;;;;;;;0.10;0.10;;;;;;;14.55;53.33;96123.63;8381987;28;20541;-77
2022/09/28 10:10:03;;;;;;;0.10;0.10;;;;;;;15.72;52.66;96129.38;8381420;28;20441;-76
2022/09/28 10:14:13;;;;;;;0.10;0.10;;;;;;;16.73;49.45;96118.00;8381620;28;20541;-76
2022/09/28 10:18:19;;;;;;;0.00;0.00;;;;;;;17.07;47.42;96120.72;8381452;28;20251;-76
2022/09/28 10:22:24;;;;;;;0.00;0.00;;;;;;;17.26;54.26;96119.72;8381509;28;20564;-79
2022/09/28 10:26:32;;;;;;;0.00;0.00;;;;;;;17.20;58.50;96122.94;8381113;28;20231;-79
2022/09/28 10:30:43;;;;;;;0.00;0.00;;;;;;;17.58;50.66;96126.91;8381260;28;20235;-79
2022/09/28 10:34:46;;;;;;;0.00;0.00;;;;;;;17.37;49.67;96126.47;8381462;28;20544;-79
2022/09/28 10:38:53;;;;;;;0.00;0.00;;;;;;;16.76;46.57;96125.56;8381564;28;20241;-79
2022/09/28 10:43:01;;;;;;;0.00;0.00;;;;;;;17.17;44.34;96136.31;8380550;28;20247;-78
2022/09/28 10:47:06;;;;;;;0.03;0.03;;;;;;;16.59;44.57;96135.88;8380656;28;20289;-76
2022/09/28 10:51:09;;;;;;;0.00;0.00;;;;;;;16.71;43.36;96136.44;8380741;28;20242;-74
2022/09/28 10:55:26;;;;;;;0.00;0.00;;;;;;;18.02;42.19;96136.44;8380656;28;20562;-75
2022/09/28 10:59:39;;;;;;;0.10;0.10;;;;;;;17.91;41.85;96134.91;8380504;28;20231;-76
2022/09/28 11:03:52;;;;;;;0.00;0.00;;;;;;;17.57;41.40;96133.13;8390636;28;20232;-74
2022/09/28 11:07:55;;;;;;;0.00;0.00;;;;;;;16.99;42.56;96128.53;8391076;28;20308;-74
2022/09/28 11:11:59;;;;;;;0.00;0.00;;;;;;;16.49;44.12;96142.16;8390946;28;20238;-74
2022/09/28 11:16:02;;;;;;;0.00;0.00;;;;;;;16.28;41.85;96140.66;8391153;28;20230;-74
2022/09/28 11:20:30;;;;;;;0.00;0.00;;;;;;;16.42;42.04;96131.47;8391789;28;20385;-74
2022/09/28 11:24:33;;;;;;;0.00;0.00;;;;;;;16.63;42.67;96136.38;8391057;28;20223;-76
2022/09/28 11:28:37;;;;;;;0.00;0.00;;;;;;;16.49;42.47;96135.13;8390606;28;20239;-74
2022/09/28 11:32:43;;;;;;;0.00;0.00;;;;;;;16.20;42.95;96141.38;8390762;28;20247;-74
2022/09/28 11:37:02;;;;;;;0.00;0.00;;;;;;;15.97;43.42;96137.53;8390974;28;20448;-75
2022/09/28 11:41:23;;;;;;;0.00;0.00;;;;;;;17.27;43.23;96115.28;8390958;28;20258;-75
2022/09/28 11:45:41;;;;;;;0.00;0.00;;;;;;;17.98;42.79;96122.03;8390080;28;20227;-75
2022/09/28 11:49:47;;;;;;;0.00;0.00;;;;;;;18.04;40.51;96123.19;8391361;28;20250;-78
2022/09/28 11:53:55;;;;;;;0.00;0.00;;;;;;;17.15;39.26;96117.34;8390800;28;20440;-77
2022/09/28 11:58:04;;;;;;;0.00;0.00;;;;;;;16.57;41.19;96129.97;8390638;28;20288;-76
2022/09/28 12:02:23;;;;;;;0.00;0.00;;;;;;;16.26;41.72;96139.97;8390608;28;20274;-76
2022/09/28 12:06:29;;;;;;;0.00;0.00;;;;;;;17.08;42.15;96132.84;8390300;28;20229;-75
2022/09/28 12:10:40;;;;;;;0.00;0.00;;;;;;;17.41;40.83;96132.22;8390426;28;20504;-76
2022/09/28 12:14:47;;;;;;;0.00;0.00;;;;;;;17.56;41.65;96128.88;8384919;28;20553;-77
2022/09/28 12:18:52;;;;;;;0.00;0.00;;;;;;;18.41;39.53;96128.03;8385350;28;20223;-78
2022/09/28 12:23:03;;;;;;;0.00;0.00;;;;;;;18.85;39.37;96133.00;8385386;28;20298;-79
2022/09/28 12:27:12;;;;;;;0.00;0.00;;;;;;;17.72;40.25;96138.56;8385641;28;20236;-78
2022/09/28 12:31:19;;;;;;;0.00;0.00;;;;;;;17.69;40.22;96141.53;8386004;28;20255;-77
2022/09/28 12:35:31;;;;;;;0.00;0.00;;;;;;;17.98;39.52;96143.78;8384752;28;20227;-76
2022/09/28 12:39:43;;;;;;;0.00;0.00;;;;;;;18.23;39.78;96136.00;8384202;28;20223;-78
2022/09/28 12:44:13;;;;;;;0.00;0.00;;;;;;;17.31;40.46;96133.16;8384561;28;20227;-78
2022/09/28 12:48:36;;;;;;;0.00;0.00;;;;;;;17.15;41.50;96141.72;8384652;28;20227;-77
2022/09/28 12:52:46;;;;;;;0.00;0.00;;;;;;;16.91;40.77;96138.94;8383819;28;20235;-79
2022/09/28 12:56:59;;;;;;;0.00;0.00;;;;;;;17.20;41.47;96144.69;8384317;28;20246;-76
2022/09/28 13:01:12;;;;;;;0.00;0.00;;;;;;;17.12;40.59;96141.22;8384327;28;20476;-78
2022/09/28 13:05:33;;;;;;;0.00;0.00;;;;;;;17.34;41.20;96139.88;8384016;28;20294;-77
2022/09/28 13:09:47;;;;;;;0.00;0.00;;;;;;;17.68;40.21;96152.16;8376142;28;20227;-77
2022/09/28 13:13:56;;;;;;;0.00;0.00;;;;;;;18.01;40.06;96142.69;8383625;28;20234;-76
2022/09/28 13:18:07;;;;;;;0.00;0.00;;;;;;;17.62;40.17;96148.34;8383947;28;20250;-80
2022/09/28 13:22:21;;;;;;;0.00;0.00;;;;;;;18.49;37.54;96141.13;8383435;28;20531;-79
2022/09/28 13:26:26;;;;;;;0.00;0.00;;;;;;;18.04;38.55;96144.16;8382864;28;20255;-78
2022/09/28 13:30:30;;;;;;;0.00;0.00;;;;;;;18.10;39.51;96143.50;8382265;28;20243;-77
2022/09/28 13:34:36;;;;;;;0.00;0.00;;;;;;;17.96;38.49;96144.94;8382424;28;20428;-77
2022/09/28 13:38:48;;;;;;;0.00;0.00;;;;;;;17.56;41.33;96149.00;8382616;28;20235;-77
2022/09/28 13:43:04;;;;;;;0.00;0.00;;;;;;;18.59;38.68;96154.09;8382572;28;20231;-76
2022/09/28 13:47:25;;;;;;;0.00;0.00;;;;;;;18.87;38.47;96156.44;8382960;28;20231;-77
2022/09/28 13:51:39;;;;;;;0.00;0.00;;;;;;;18.19;38.82;96152.22;8382208;28;20523;-78
2022/09/28 13:55:52;;;;;;;0.00;0.00;;;;;;;18.39;38.38;96144.88;8382432;28;20239;-80
2022/09/28 14:00:09;;;;;;;0.00;0.00;;;;;;;18.23;39.53;96150.91;8382489;28;20298;-79
2022/09/28 14:04:17;;;;;;;0.00;0.00;;;;;;;18.42;38.30;96141.94;8382258;28;20295;-77
2022/09/28 14:08:39;;;;;;;0.00;0.00;;;;;;;18.60;37.51;96149.66;8381970;28;20227;-77
2022/09/28 14:12:47;;;;;;;0.00;0.00;;;;;;;18.04;37.24;96152.81;8381232;28;20424;-77
2022/09/28 14:16:52;;;;;;;0.00;0.00;;;;;;;18.62;37.29;96163.41;8381642;28;20228;-78
2022/09/28 14:21:07;;;;;;;0.00;0.00;;;;;;;18.24;37.36;96163.84;8381488;28;20285;-78
2022/09/28 14:25:16;;;;;;;0.00;0.00;;;;;;;18.15;39.12;96165.63;8381300;28;20227;-77
2022/09/28 14:29:27;;;;;;;0.00;0.00;;;;;;;17.05;39.85;96163.72;8381233;28;20520;-77
2022/09/28 14:33:31;;;;;;;0.00;0.00;;;;;;;16.95;41.46;96177.69;8380549;28;20227;-76
2022/09/28 14:42:08;;;;;;;0.00;0.00;;;;;;;18.03;39.63;96166.91;8380926;28;20240;-77
2022/09/28 14:46:32;;;;;;;0.00;0.00;;;;;;;18.29;38.23;96169.41;8380981;28;20250;-78
2022/09/28 14:50:35;;;;;;;0.00;0.00;;;;;;;18.27;38.01;96168.75;8380525;28;20227;-78
2022/09/28 14:54:58;;;;;;;0.00;0.00;;;;;;;17.97;38.04;96180.59;8380458;28;20227;-77
2022/09/28 14:59:02;;;;;;;0.00;0.00;;;;;;;18.17;37.61;96184.63;8377404;28;20232;-78
2022/09/28 15:03:06;;;;;;;0.00;0.00;;;;;;;18.09;37.32;96189.03;8380691;28;20226;-78
2022/09/28 15:07:20;;;;;;;0.00;0.00;;;;;;;18.08;37.98;96197.84;8380625;28;20294;-79
2022/09/28 15:11:25;;;;;;;0.00;0.00;;;;;;;18.06;37.78;96190.13;8380711;28;20452;-78
2022/09/28 15:15:32;;;;;;;0.00;0.00;;;;;;;17.37;39.26;96197.13;8379930;28;20330;-78
2022/09/28 15:19:41;;;;;;;0.00;0.00;;;;;;;17.78;38.72;96203.44;8380201;28;20421;-78
2022/09/28 15:23:46;;;;;;;0.00;0.00;;;;;;;17.84;38.81;96206.38;8380423;28;20239;-78
2022/09/28 15:27:52;;;;;;;0.00;0.00;;;;;;;17.99;39.76;96204.84;8380121;28;20248;-78
2022/09/28 15:31:57;;;;;;;0.00;0.00;;;;;;;17.95;39.09;96199.13;8380036;28;20238;-78
2022/09/28 15:36:03;;;;;;;0.00;0.00;;;;;;;17.89;39.35;96201.53;8380182;28;20232;-78
2022/09/28 15:40:12;;;;;;;0.00;0.00;;;;;;;17.61;39.86;96206.09;8379698;28;20302;-79
2022/09/28 15:44:28;;;;;;;0.00;0.00;;;;;;;17.31;40.06;96210.81;8379960;28;20235;-78
2022/09/28 15:48:36;;;;;;;0.00;0.00;;;;;;;17.17;40.92;96223.47;8382359;28;20235;-78
2022/09/28 15:52:43;;;;;;;0.00;0.00;;;;;;;17.02;41.07;96217.16;8385737;28;20238;-79
2022/09/28 15:56:56;;;;;;;0.00;0.00;;;;;;;16.99;42.44;96222.66;8385932;28;20251;-79
2022/09/28 16:01:28;;;;;;;0.00;0.00;;;;;;;16.51;42.09;96229.84;8385683;28;20238;-81
2022/09/28 16:05:41;;;;;;;0.00;0.00;;;;;;;16.30;42.70;96227.50;8384989;28;20231;-78
2022/09/28 16:09:58;;;;;;;0.00;0.00;;;;;;;16.28;43.85;96226.00;8385370;28;20228;-78
2022/09/28 16:14:05;;;;;;;0.00;0.00;;;;;;;16.25;44.66;96228.91;8385631;28;20526;-78
2022/09/28 16:18:17;;;;;;;0.00;0.00;;;;;;;16.14;45.03;96235.16;8385770;28;20231;-79
2022/09/28 16:22:23;;;;;;;0.00;0.00;;;;;;;16.15;44.37;96236.81;8385508;28;20227;-78
2022/09/28 16:26:32;;;;;;;0.00;0.00;;;;;;;16.02;44.36;96245.78;8384977;28;20510;-78
2022/09/28 16:30:35;;;;;;;0.00;0.00;;;;;;;15.97;45.50;96245.41;8385129;28;20235;-78
2022/09/28 16:34:39;;;;;;;0.00;0.00;;;;;;;15.86;46.23;96245.59;8384633;28;20232;-76
2022/09/28 16:38:45;;;;;;;0.00;0.00;;;;;;;15.70;46.99;96253.16;8383999;28;20235;-76
2022/09/28 16:42:48;;;;;;;0.00;0.00;;;;;;;15.64;46.79;96257.13;8384671;28;20242;-77
2022/09/28 16:46:53;;;;;;;0.00;0.00;;;;;;;15.66;47.41;96263.03;8384747;28;20227;-77
2022/09/28 16:50:57;;;;;;;0.00;0.00;;;;;;;15.58;47.98;96260.31;8384153;28;20231;-78
2022/09/28 16:55:16;;;;;;;0.00;0.00;;;;;;;15.55;47.21;96263.19;8384108;28;20228;-77
2022/09/28 16:59:38;;;;;;;0.00;0.00;;;;;;;15.49;47.53;96264.56;8382997;28;20281;-77
2022/09/28 17:03:45;;;;;;;0.00;0.00;;;;;;;15.44;47.50;96264.19;8383927;28;20429;-77
2022/09/28 17:07:49;;;;;;;0.00;0.00;;;;;;;15.41;48.03;96264.47;8383640;28;20321;-77
2022/09/28 17:11:55;;;;;;;0.00;0.00;;;;;;;15.36;48.50;96267.47;8383393;28;20298;-77
2022/09/28 17:15:58;;;;;;;0.00;0.00;;;;;;;15.31;49.40;96266.28;8383639;28;20227;-76
2022/09/28 17:20:04;;;;;;;0.00;0.00;;;;;;;15.25;48.98;96268.47;8382597;28;20238;-76
2022/09/28 17:24:07;;;;;;;0.00;0.00;;;;;;;15.22;49.27;96273.13;8383121;28;20227;-76
2022/09/28 17:28:19;;;;;;;0.00;0.00;;;;;;;15.16;49.55;96279.72;8382976;28;20514;-77
2022/09/28 17:32:21;;;;;;;0.00;0.00;;;;;;;15.06;50.21;96271.09;8349884;28;20240;-77
2022/09/28 17:36:25;;;;;;;0.00;0.00;;;;;;;14.99;50.34;96273.41;8349859;28;20574;-79
2022/09/28 17:40:29;;;;;;;0.00;0.00;;;;;;;14.97;50.01;96277.13;8349121;28;20519;-77
2022/09/28 17:44:33;;;;;;;0.00;0.00;;;;;;;14.88;50.53;96276.13;8349762;28;20235;-77
2022/09/28 17:48:36;;;;;;;0.00;0.00;;;;;;;14.77;51.43;96281.47;8349144;28;20223;-76
2022/09/28 17:52:39;;;;;;;0.00;0.00;;;;;;;14.73;51.51;96288.72;8349343;28;20231;-79
2022/09/28 17:56:42;;;;;;;0.00;0.00;;;;;;;14.60;51.70;96290.75;8349224;28;20236;-79
2022/09/28 18:00:48;;;;;;;0.00;0.00;;;;;;;14.60;52.16;96290.75;8349012;28;20228;-78
2022/09/28 18:04:51;;;;;;;0.00;0.00;;;;;;;14.55;52.02;96295.53;8348778;28;20517;-79
2022/09/28 18:08:54;;;;;;;0.00;0.00;;;;;;;14.52;52.42;96301.00;8348377;28;20269;-78
2022/09/28 18:12:57;;;;;;;0.00;0.00;;;;;;;15.16;71.59;96300.56;8347658;28;20247;-77
2022/09/28 18:17:01;;;;;;;0.00;0.00;;;;;;;16.25;64.00;96294.22;8348555;28;20228;-78
2022/09/28 18:21:04;;;;;;;0.00;0.00;;;;;;;16.54;56.10;96305.31;8348264;28;20228;-80
2022/09/28 18:25:07;;;;;;;0.00;0.00;;;;;;;16.67;53.60;96306.78;8348087;28;20224;-76
2022/09/28 18:29:10;;;;;;;0.00;0.00;;;;;;;15.93;50.94;96304.06;8347715;28;20238;-78
2022/09/28 18:33:15;;;;;;;0.00;0.00;;;;;;;15.29;52.31;96300.31;8347691;28;20232;-78
2022/09/28 18:37:17;;;;;;;0.00;0.00;;;;;;;15.08;52.82;96310.03;8347468;28;20228;-76
2022/09/28 18:41:20;;;;;;;0.00;0.00;;;;;;;14.88;53.13;96317.00;8347815;28;20243;-76
2022/09/28 18:45:23;;;;;;;0.00;0.00;;;;;;;14.62;53.75;96322.72;8347627;28;20232;-78
2022/09/28 18:49:27;;;;;;;0.00;0.00;;;;;;;14.40;54.26;96328.94;8347128;28;20368;-77
2022/09/28 18:53:33;;;;;;;0.00;0.00;;;;;;;14.31;54.20;96327.94;8346996;28;20232;-76
2022/09/28 18:57:37;;;;;;;0.00;0.00;;;;;;;14.16;54.86;96343.06;8347144;28;20429;-77
2022/09/28 19:01:40;;;;;;;0.00;0.00;;;;;;;14.04;54.96;96338.91;8347180;28;20231;-76
2022/09/28 19:05:45;;;;;;;0.00;0.00;;;;;;;13.99;55.29;96341.06;8347196;28;20232;-76
2022/09/28 19:09:48;;;;;;;0.10;0.10;;;;;;;13.87;55.31;96340.31;8347164;28;20235;-74
2022/09/28 19:13:52;;;;;;;0.00;0.00;;;;;;;14.30;53.96;96343.69;8345937;28;20419;-74
2022/09/28 19:17:55;;;;;;;0.00;0.00;;;;;;;13.81;55.39;96352.06;8347036;28;20236;-75
2022/09/28 19:22:00;;;;;;;0.00;0.00;;;;;;;13.66;55.10;96354.16;8348152;28;20231;-75
2022/09/28 19:26:03;;;;;;;0.00;0.00;;;;;;;13.63;55.59;96353.56;8353476;28;20291;-75
2022/09/28 19:30:07;;;;;;;0.10;0.10;;;;;;;13.55;55.73;96363.78;8353284;28;20231;-75
2022/09/28 19:34:10;;;;;;;0.00;0.00;;;;;;;13.47;55.06;96365.22;8353127;28;20258;-75
2022/09/28 19:38:18;;;;;;;0.00;0.00;;;;;;;13.36;55.34;96370.47;8353338;28;20231;-75
2022/09/28 19:42:21;;;;;;;0.00;0.00;;;;;;;13.15;55.64;96374.78;8353038;28;20254;-73